Latest Coastal Weather Observations for Whyalla

IDS60701

Issued at 7:21 am CDT Monday 30 March 2015 (issued every 10 minutes, with the page automatically refreshed every 10 minutes)

About coastal observations | Map of coastal stations | Coastal observations for SA | Marine services | Other Formats
Station Details ID: 018120 Name: WHYALLA AERO Lat: -33.05 Lon: 137.52 Height: 6.5 m
Data from the previous 72 hours. | See also: Recent months at Whyalla
Date/Time
CDT
Temp

°C
Wind Pressure Rain
since 9am
mm
Weather Cloud Vis
km
Sea
Height
m
Swell
Dir
 
Speed
knots
Gust
knots
hPa Trend Height
m
Period
s
Dir
30/07:00am 12.0 W 5 5 1022.9 - 0.0 - - 10 - - - -
30/06:30am 12.2 WSW 4 5 1022.5 - 0.0 - - 10 - - - -
30/06:00am 11.9 W 4 5 1022.3 - 0.0 - - 10 - - - -
30/05:30am 12.3 W 4 4 1022.1 - 0.0 - - 10 - - - -
30/05:00am 12.5 W 4 4 1022.1 - 0.0 - - 10 - - - -
30/04:30am 13.2 W 4 4 1022.3 - 0.0 - - 10 - - - -
30/04:00am 14.2 WSW 4 5 1022.2 - 0.0 - - 10 - - - -
30/03:30am 14.1 W 4 5 1022.4 - 0.0 - - 10 - - - -
30/03:00am 14.4 WSW 5 6 1022.5 - 0.0 - - 10 - - - -
30/02:30am 13.8 WNW 4 5 1022.7 - 0.0 - - 10 - - - -
30/02:00am 14.0 WSW 3 3 1022.8 - 0.0 - - 10 - - - -
30/01:30am 14.3 CALM 0 2 1022.9 - 0.0 - - 10 - - - -
30/01:00am 15.0 CALM 0 2 1023.0 - 0.0 - - 10 - - - -
30/12:30am 15.5 SW 3 3 1023.1 - 0.0 - - 10 - - - -
30/12:00am 16.0 SW 3 4 1023.1 - 0.0 - Partly cloudy 10 - - - -
 
Date/Time
CDT
Temp

°C
Wind Pressure Rain
since 9am
mm
Weather Cloud Vis
km
Sea
Height
m
Swell
Dir
 
Speed
knots
Gust
knots
hPa Trend Height
m
Period
s
Dir
29/11:30pm 16.0 W 3 4 1023.2 - 0.0 - Partly cloudy 10 - - - -
29/11:00pm 16.0 W 2 3 1023.2 - 0.0 - Partly cloudy 10 - - - -
29/10:30pm 16.6 SSW 3 4 1023.2 - 0.0 - - 10 - - - -
29/10:00pm 17.4 S 5 6 1022.9 - 0.0 - - 10 - - - -
29/09:30pm 18.0 S 6 7 1022.7 - 0.0 - - 10 - - - -
29/09:00pm 17.6 S 6 8 1022.5 - 0.0 - - 10 - - - -
29/08:30pm 19.4 E 4 5 1021.9 - 0.0 - Partly cloudy 10 - - - -
29/08:00pm 20.0 ESE 4 5 1021.7 - 0.0 - Partly cloudy 10 - - - -
29/07:30pm 21.0 E 4 5 1021.6 - 0.0 - Partly cloudy 10 - - - -
29/07:00pm 22.1 ENE 8 11 1021.3 - 0.0 - - 10 - - - -
29/06:30pm 23.1 ENE 9 13 1020.8 - 0.0 - - 10 - - - -
29/06:00pm 22.9 ENE 11 15 1020.8 - 0.0 - - 10 - - - -
29/05:30pm 23.6 E 12 17 1020.6 - 0.0 - Partly cloudy 10 - - - -
29/05:00pm 24.9 ENE 12 16 1020.7 - 0.0 - - 10 - - - -
29/04:30pm 24.8 ENE 13 16 1020.5 - 0.0 - - 10 - - - -
29/04:00pm 24.7 E 11 14 1020.7 - 0.0 - Partly cloudy 10 - - - -
29/03:30pm 24.0 E 9 10 1021.0 - 0.0 - Cloudy 10 - - - -
29/03:00pm 23.7 E 7 10 1021.0 - 0.0 - Cloudy 10 - - - -
29/02:30pm 22.5 ENE 8 10 1021.5 - 0.0 - Cloudy 10 - - - -
29/02:00pm 22.9 E 7 9 1021.8 - 0.0 - Cloudy 10 - - - -
29/01:30pm 22.8 ESE 6 8 1022.3 - 0.0 - Cloudy 10 - - - -
29/01:00pm 22.7 ESE 6 8 1022.5 - 0.0 - Cloudy 10 - - - -
29/12:30pm 22.5 ESE 6 8 1022.6 - 0.0 - Cloudy 10 - - - -
29/12:00pm 22.2 SE 6 8 1022.8 - 0.0 - Cloudy 10 - - - -
29/11:30am 22.3 ESE 5 7 1022.7 - 0.0 - Cloudy 10 - - - -
29/11:00am 21.7 E 4 6 1022.9 - 0.0 - Cloudy 10 - - - -
29/10:30am 21.6 ESE 2 4 1022.8 - 0.0 - Partly cloudy 10 - - - -
29/10:00am 20.6 CALM 0 3 1022.9 - 0.0 - Partly cloudy 10 - - - -
29/09:30am 19.1 NW 5 7 1022.9 - 0.0 - Cloudy 10 - - - -
29/09:00am 17.9 NW 4 5 1022.6 - - - Cloudy 10 - - - -
29/08:30am 16.7 WNW 4 6 1022.2 - - - Cloudy 10 - - - -
29/08:00am 16.4 NW 3 4 1022.0 - - - Cloudy 10 - - - -
29/07:30am 16.1 NNW 4 5 1021.7 - - - Cloudy 10 - - - -
29/07:00am 15.8 NNW 3 5 1021.3 - - - Cloudy 10 - - - -
29/06:30am 15.5 NW 4 5 1020.9 - - - Cloudy 10 - - - -
29/06:00am 15.2 W 2 4 1020.6 - - - Cloudy 10 - - - -
29/05:30am 14.7 WNW 3 5 1020.4 - - - Partly cloudy 10 - - - -
29/05:00am 14.7 NW 3 4 1020.2 - - - Partly cloudy 10 - - - -
29/04:30am 14.2 NW 4 5 1020.1 - - - Cloudy 10 - - - -
29/04:00am 14.2 NW 4 5 1020.2 - - - Cloudy 10 - - - -
29/03:30am 14.1 W 3 4 1020.2 - - - Partly cloudy 10 - - - -
29/03:00am 14.2 W 4 5 1020.5 - - - Mostly clear 10 - - - -
29/02:30am 14.4 W 4 5 1020.5 - - - - 10 - - - -
29/02:00am 15.0 WSW 5 5 1020.8 - - - - 10 - - - -
29/01:30am 15.5 WSW 4 5 1020.9 - - - - 10 - - - -
29/01:00am 16.6 - - - 1021.0 - - - - - - - - -
29/12:00am 17.0 WSW 1 4 1021.1 - 0.0 - Cloudy 10 - - - -
 
Date/Time
CDT
Temp

°C
Wind Pressure Rain
since 9am
mm
Weather Cloud Vis
km
Sea
Height
m
Swell
Dir
 
Speed
knots
Gust
knots
hPa Trend Height
m
Period
s
Dir
28/11:30pm 16.8 CALM 0 0 1021.0 - 0.0 - Partly cloudy 10 - - - -
28/11:00pm 17.7 ENE 3 4 1021.1 - 0.0 - - 10 - - - -
28/10:30pm 18.7 ENE 4 5 1021.3 - 0.0 - Partly cloudy 10 - - - -
28/10:00pm 18.6 E 4 5 1021.2 - 0.0 - Partly cloudy 10 - - - -
28/09:30pm 18.9 SSE 2 3 1021.4 - 0.0 - - 10 - - - -
28/09:00pm 19.1 SSE 4 4 1021.2 - 0.0 - Mostly cloudy 10 - - - -
28/08:30pm 19.6 S 3 4 1021.1 - 0.0 - Cloudy 10 - - - -
28/08:00pm 19.9 SSE 3 4 1020.7 - 0.0 - Cloudy 10 - - - -
28/07:30pm 20.3 SE 4 6 1020.6 - 0.0 - - 10 - - - -
28/07:00pm 20.9 SE 4 6 1020.7 - 0.0 - - 10 - - - -
28/06:30pm 21.1 ESE 6 9 1020.2 - 0.0 - - 10 - - - -
28/06:00pm 21.6 ESE 7 9 1020.2 - 0.0 - Cloudy 10 - - - -
28/05:30pm 22.0 ESE 7 9 1020.1 - 0.0 - - 10 - - - -
28/05:00pm 22.6 ESE 7 9 1020.0 - 0.0 - - 10 - - - -
28/04:30pm 22.2 ESE 9 10 1020.0 - 0.0 - - 10 - - - -
28/04:00pm 22.5 ESE 9 12 1020.2 - 0.0 - - 10 - - - -
28/03:30pm 24.1 NW 6 11 1020.6 - 0.0 - - 10 - - - -
28/03:00pm 23.9 NW 7 10 1020.9 - 0.0 - Mostly cloudy 10 - - - -
28/02:30pm 23.6 NW 8 13 1021.2 - 0.0 - - 10 - - - -
28/02:00pm 23.5 NNW 10 15 1021.9 - 0.0 - - 10 - - - -
28/01:30pm 22.7 NNW 10 16 1022.4 - 0.0 - - 10 - - - -
28/01:00pm 22.1 N 11 15 1023.0 - 0.0 - - 10 - - - -
28/12:30pm 21.6 NNW 10 13 1023.5 - 0.0 - - 10 - - - -
28/12:00pm 21.2 NNW 10 14 1023.8 - 0.0 - Cloudy 10 - - - -
28/11:30am 20.5 NNE 8 12 1024.2 - 0.0 - - 10 - - - -
28/11:00am 19.8 NNE 7 9 1024.3 - 0.0 - - 10 - - - -
28/10:30am 18.6 NNE 7 9 1024.6 - 0.0 - - 10 - - - -
28/10:00am 17.8 N 3 6 1024.6 - 0.0 - - 10 - - - -
28/09:30am 16.0 NNW 3 4 1024.7 - 0.0 - - 10 - - - -
28/09:00am 14.2 NNW 3 4 1024.5 - 0.0 - - 10 - - - -
28/08:30am 12.0 NNW 5 6 1024.6 - 0.0 - - 10 - - - -
28/08:00am 9.2 NW 4 5 1024.4 - 0.0 - - 10 - - - -
28/07:30am 9.2 NW 4 5 1024.0 - 0.0 - - 10 - - - -
28/07:00am 9.5 NW 4 5 1023.7 - 0.0 - - 10 - - - -
28/06:30am 9.3 NNW 5 6 1023.8 - 0.0 - - 10 - - - -
28/06:00am 9.4 NW 4 5 1023.7 - 0.0 - - 10 - - - -
28/05:30am 9.6 WNW 3 4 1023.8 - 0.0 - - 10 - - - -
28/05:00am 10.4 CALM 0 0 1023.7 - 0.0 - - 10 - - - -
28/04:30am 12.8 SE 2 4 1024.0 - 0.0 - - 10 - - - -
28/04:00am 14.3 SE 4 5 1023.8 - 0.0 - - 10 - - - -
28/03:30am 14.7 SE 5 6 1024.1 - 0.0 - - 10 - - - -
28/03:00am 15.5 SE 7 9 1024.4 - 0.0 - - 10 - - - -
28/02:30am 15.8 ESE 7 10 1024.7 - 0.0 - - 10 - - - -
28/02:00am 15.8 SE 7 10 1025.2 - 0.0 - - 10 - - - -
28/01:30am 15.7 SE 7 9 1025.5 - 0.0 - - 10 - - - -
28/01:00am 16.0 ESE 8 11 1025.5 - 0.0 - - 10 - - - -
28/12:30am 16.3 SE 8 12 1025.7 - 0.0 - - 10 - - - -
28/12:00am 16.8 SE 7 11 1025.5 - 0.0 - - 10 - - - -
 
Date/Time
CDT
Temp

°C
Wind Pressure Rain
since 9am
mm
Weather Cloud Vis
km
Sea
Height
m
Swell
Dir
 
Speed
knots
Gust
knots
hPa Trend Height
m
Period
s
Dir
27/11:30pm 16.9 SE 7 11 1025.6 - 0.0 - - 10 - - - -
27/11:00pm 17.2 SE 9 13 1025.8 - 0.0 - - 10 - - - -
27/10:30pm 17.2 SE 7 10 1025.7 - 0.0 - - 10 - - - -
27/10:00pm 16.0 SSW 8 11 1025.5 - 0.0 - - 10 - - - -
27/09:30pm 16.8 SSW 10 14 1025.8 - 0.0 - - 10 - - - -
27/09:00pm 17.1 S 12 15 1025.8 - 0.0 - - 10 - - - -
27/08:30pm 17.0 S 12 16 1025.7 - 0.0 - - 10 - - - -
27/08:00pm 17.1 S 12 16 1025.5 - 0.0 - - 10 - - - -
27/07:30pm 17.2 S 13 18 1025.3 - 0.0 - - 10 - - - -
27/07:00pm 17.8 S 12 18 1025.3 - 0.0 - - 10 - - - -
27/06:30pm 18.5 S 14 18 1025.2 - 0.0 - - 10 - - - -
27/06:00pm 18.9 S 13 19 1025.2 - 0.0 - - 10 - - - -
27/05:30pm 19.0 S 13 17 1025.1 - 0.0 - - 10 - - - -
27/05:00pm 18.7 S 11 15 1025.2 - 0.0 - - 10 - - - -
27/04:30pm 19.2 S 10 14 1025.5 - 0.0 - - 10 - - - -
27/04:00pm 19.5 S 10 14 1025.7 - 0.0 - - 10 - - - -
27/03:30pm 20.3 SSE 9 13 1026.0 - 0.0 - - 10 - - - -
27/03:00pm 18.8 SSE 11 15 1026.3 - 0.0 - - 10 - - - -
27/02:30pm 19.0 S 9 14 1026.7 - 0.0 - - 10 - - - -
27/02:00pm 19.3 SE 9 15 1027.3 - 0.0 - - 10 - - - -
27/01:30pm 18.4 SE 10 15 1027.6 - 0.0 - - 10 - - - -
27/01:00pm 18.4 SE 9 15 1028.1 - 0.0 - - 10 - - - -
27/12:30pm 17.8 SE 9 13 1028.5 - 0.0 - Partly cloudy 10 - - - -
27/12:00pm 18.2 SE 10 15 1028.8 - 0.0 - Mostly cloudy 10 - - - -
27/11:30am 17.6 SE 8 13 1029.4 - 0.0 - Cloudy 10 - - - -
27/11:00am 18.1 SE 9 15 1029.6 - 0.0 - Cloudy 10 - - - -
27/10:30am 17.4 SE 8 11 1029.7 - 0.0 - Cloudy 10 - - - -
27/10:00am 16.7 ESE 9 11 1029.7 - 0.0 - Cloudy 10 - - - -
27/09:30am 16.1 ESE 10 13 1029.5 - 0.0 - Cloudy 10 - - - -
27/09:00am 15.8 ESE 10 14 1029.2 - 0.0 - Cloudy 10 - - - -
27/08:30am 15.7 ESE 8 12 1029.1 - 0.0 - Cloudy 10 - - - -
27/08:00am 15.7 ESE 7 9 1028.9 - 0.0 - Cloudy 10 - - - -
27/07:30am 15.1 ESE 7 10 1028.8 - 0.0 - Cloudy 10 - - - -

Other Formats:

Comma delimited format used in spreadsheet applications
http://www.bom.gov.au/fwo/IDS60701/IDS60701.95664.axf

JavaScript Object Notation format (JSON) in row-major order
http://www.bom.gov.au/fwo/IDS60701/IDS60701.95664.json